createdAt,value
2022-11-09T00:01:20.214Z,3.75
2022-11-09T00:03:49.847Z,3.47
2022-11-09T00:06:17.876Z,3.30
2022-11-09T00:08:45.891Z,3.55
2022-11-09T00:11:13.985Z,4.25
2022-11-09T00:13:44.051Z,3.30
2022-11-09T00:16:14.111Z,3.90
2022-11-09T00:18:47.333Z,3.67
2022-11-09T00:21:19.223Z,3.65
2022-11-09T00:23:47.858Z,3.05
2022-11-09T00:26:18.249Z,3.35
2022-11-09T00:28:46.369Z,3.03
2022-11-09T00:31:16.494Z,2.80
2022-11-09T00:33:49.049Z,2.80
2022-11-09T00:36:19.921Z,3.15
2022-11-09T00:38:50.864Z,3.08
2022-11-09T00:41:19.524Z,2.47
2022-11-09T00:43:48.150Z,2.80
2022-11-09T00:46:16.957Z,2.60
2022-11-09T00:48:45.265Z,2.63
2022-11-09T00:51:13.999Z,2.95
2022-11-09T00:53:43.942Z,3.65
2022-11-09T00:56:13.911Z,3.50
2022-11-09T00:58:42.768Z,3.47
2022-11-09T01:01:13.552Z,3.38
2022-11-09T01:03:43.938Z,3.40
2022-11-09T01:06:16.109Z,2.85
2022-11-09T01:08:46.145Z,3.80
2022-11-09T01:11:16.683Z,2.92
2022-11-09T01:13:45.439Z,3.00
2022-11-09T01:16:15.659Z,2.88
2022-11-09T01:18:44.154Z,2.72
2022-11-09T01:21:14.316Z,3.20
2022-11-09T01:23:43.898Z,2.75
2022-11-09T01:26:15.778Z,2.67
2022-11-09T01:28:44.867Z,2.58
2022-11-09T01:31:15.453Z,3.05
2022-11-09T01:33:43.956Z,3.08
2022-11-09T01:36:14.620Z,2.50
2022-11-09T01:38:42.763Z,2.15
2022-11-09T01:41:15.991Z,2.10
2022-11-09T01:43:44.228Z,2.30
2022-11-09T01:46:20.493Z,2.20
2022-11-09T01:48:53.700Z,2.25
2022-11-09T01:51:26.961Z,2.38
2022-11-09T01:54:01.512Z,2.30
2022-11-09T01:56:33.046Z,1.90
2022-11-09T01:59:05.365Z,2.17
2022-11-09T02:01:34.774Z,2.20
2022-11-09T02:04:08.580Z,2.05
2022-11-09T02:06:36.980Z,2.00
2022-11-09T02:09:25.118Z,2.00
2022-11-09T02:11:54.809Z,2.08
2022-11-09T02:14:25.032Z,2.08
2022-11-09T02:16:53.175Z,1.85
2022-11-09T02:19:21.219Z,1.90
2022-11-09T02:21:51.643Z,1.85
2022-11-09T02:24:20.436Z,2.05
2022-11-09T02:26:51.018Z,1.95
2022-11-09T02:29:22.243Z,1.80
2022-11-09T02:31:55.271Z,2.17
2022-11-09T02:34:25.108Z,1.98
2022-11-09T02:36:55.031Z,2.50
2022-11-09T02:39:26.665Z,2.20
2022-11-09T02:42:02.889Z,2.47
2022-11-09T02:44:37.182Z,2.55
2022-11-09T02:47:05.301Z,2.40
2022-11-09T02:49:33.328Z,2.50
2022-11-09T02:52:02.804Z,2.63
2022-11-09T02:54:31.000Z,2.63
2022-11-09T02:57:00.265Z,2.40
2022-11-09T02:59:29.451Z,3.60
2022-11-09T03:01:58.926Z,2.70
2022-11-09T03:04:29.786Z,2.65
2022-11-09T03:06:58.446Z,2.63
2022-11-09T03:09:28.517Z,2.80
2022-11-09T03:11:57.769Z,3.00
2022-11-09T03:14:25.823Z,2.40
2022-11-09T03:16:58.025Z,3.03
2022-11-09T03:19:26.243Z,2.88
2022-11-09T03:21:54.624Z,3.42
2022-11-09T03:24:24.970Z,3.00
2022-11-09T03:26:58.248Z,2.92
2022-11-09T03:29:26.855Z,2.88
2022-11-09T03:31:56.614Z,2.22
2022-11-09T03:34:24.874Z,2.40
2022-11-09T03:36:53.018Z,2.60
2022-11-09T03:39:21.890Z,2.50
2022-11-09T03:41:50.377Z,3.00
2022-11-09T03:44:20.105Z,2.70
2022-11-09T03:46:48.357Z,3.10
2022-11-09T03:49:16.509Z,3.00
2022-11-09T03:51:44.471Z,2.95
2022-11-09T03:54:12.432Z,3.25
2022-11-09T03:56:40.519Z,3.13
2022-11-09T03:59:08.542Z,3.35
2022-11-09T04:01:37.954Z,3.28
2022-11-09T04:04:06.278Z,3.00
2022-11-09T04:06:34.337Z,3.10
2022-11-09T04:09:02.339Z,3.25
2022-11-09T04:11:30.383Z,2.80
2022-11-09T04:13:58.463Z,3.50
2022-11-09T04:16:26.691Z,3.67
2022-11-09T04:18:56.141Z,3.80
2022-11-09T04:21:24.276Z,3.65
2022-11-09T04:23:52.389Z,3.33
2022-11-09T04:26:20.437Z,3.33
2022-11-09T04:28:48.545Z,3.22
2022-11-09T04:31:16.483Z,3.67
2022-11-09T04:33:44.498Z,3.00
2022-11-09T04:36:14.104Z,2.45
2022-11-09T04:38:42.138Z,2.20
2022-11-09T04:41:10.228Z,2.58
2022-11-09T04:43:38.300Z,2.60
2022-11-09T04:46:06.756Z,2.28
2022-11-09T04:48:35.208Z,2.70
2022-11-09T04:51:04.496Z,2.28
2022-11-09T04:53:34.351Z,2.10
2022-11-09T04:56:02.445Z,2.33
2022-11-09T04:58:31.008Z,2.17
2022-11-09T05:01:03.972Z,2.30
2022-11-09T05:03:32.263Z,2.28
2022-11-09T05:06:00.446Z,2.33
2022-11-09T05:08:28.709Z,2.95
2022-11-09T05:10:59.138Z,2.60
2022-11-09T05:13:27.313Z,2.35
2022-11-09T05:15:55.524Z,2.20
2022-11-09T05:18:23.852Z,2.45
2022-11-09T05:20:51.798Z,1.65
2022-11-09T05:23:37.120Z,1.63
2022-11-09T05:26:06.977Z,1.50
2022-11-09T05:28:35.091Z,1.42
2022-11-09T05:31:03.445Z,1.40
2022-11-09T05:33:32.157Z,2.13
2022-11-09T05:36:00.501Z,1.73
2022-11-09T05:38:28.533Z,1.63
2022-11-09T05:40:56.532Z,1.10
2022-11-09T05:43:25.936Z,1.45
2022-11-09T05:45:54.115Z,1.27
2022-11-09T05:48:22.247Z,1.45
2022-11-09T05:50:50.328Z,1.30
2022-11-09T05:53:27.718Z,1.48
2022-11-09T05:55:55.932Z,1.60
2022-11-09T05:58:25.311Z,1.60
2022-11-09T06:00:53.410Z,1.45
2022-11-09T06:03:21.627Z,1.35
2022-11-09T06:05:49.897Z,1.55
2022-11-09T06:08:17.912Z,6.18
2022-11-09T06:10:46.210Z,2.75
2022-11-09T06:13:14.219Z,30.20
2022-11-09T06:15:43.785Z,52.58
2022-11-09T06:18:12.008Z,11.52
2022-11-09T06:20:40.109Z,2.90
2022-11-09T06:23:08.358Z,1.55
2022-11-09T06:25:36.496Z,1.70
2022-11-09T06:28:04.862Z,1.50
2022-11-09T06:30:33.270Z,2.40
2022-11-09T06:33:03.801Z,2.58
2022-11-09T06:35:31.913Z,2.25
2022-11-09T06:38:01.294Z,1.45
2022-11-09T06:40:29.902Z,2.00
2022-11-09T06:42:59.366Z,2.58
2022-11-09T06:45:29.018Z,4.10
2022-11-09T06:47:57.722Z,2.10
2022-11-09T06:50:28.863Z,1.80
2022-11-09T06:52:58.306Z,1.48
2022-11-09T06:55:26.879Z,1.52
2022-11-09T06:57:54.970Z,4.00
2022-11-09T07:00:23.698Z,7.07
2022-11-09T07:02:52.110Z,7.40
2022-11-09T07:05:24.732Z,7.05
2022-11-09T07:07:54.927Z,5.07
2022-11-09T07:10:23.079Z,4.43
2022-11-09T07:12:51.474Z,4.25
2022-11-09T07:15:19.782Z,4.30
2022-11-09T07:17:47.998Z,4.05
2022-11-09T07:20:16.519Z,4.28
2022-11-09T07:22:44.619Z,4.40
2022-11-09T07:25:14.506Z,3.95
2022-11-09T07:27:42.597Z,4.05
2022-11-09T07:30:11.664Z,4.20
2022-11-09T07:33:07.568Z,5.47
2022-11-09T07:35:29.616Z,4.30
2022-11-09T07:38:01.646Z,3.80
2022-11-09T07:40:31.625Z,3.15
2022-11-09T07:43:00.374Z,2.95
2022-11-09T07:45:29.151Z,2.88
2022-11-09T07:47:58.521Z,3.40
2022-11-09T07:50:30.040Z,2.80
2022-11-09T07:52:58.791Z,2.80
2022-11-09T07:55:28.216Z,2.50
2022-11-09T07:57:58.593Z,2.45
2022-11-09T08:00:28.305Z,2.80
2022-11-09T08:02:56.732Z,2.58
2022-11-09T08:05:25.089Z,2.67
2022-11-09T08:07:56.728Z,2.90
2022-11-09T08:10:25.539Z,2.42
2022-11-09T08:12:59.897Z,2.33
2022-11-09T08:15:28.744Z,2.47
2022-11-09T08:18:01.031Z,2.72
2022-11-09T08:20:29.803Z,2.80
2022-11-09T08:23:03.337Z,2.60
2022-11-09T08:25:33.728Z,2.90
2022-11-09T08:28:03.498Z,3.00
2022-11-09T08:30:32.339Z,2.88
2022-11-09T08:33:02.434Z,3.08
2022-11-09T08:35:34.469Z,2.90
2022-11-09T08:38:05.265Z,2.92
2022-11-09T08:40:34.313Z,2.75
2022-11-09T08:43:06.286Z,2.83
2022-11-09T08:45:36.066Z,2.90
2022-11-09T08:48:04.887Z,2.80
2022-11-09T08:50:34.918Z,2.50
2022-11-09T08:53:05.148Z,2.90
2022-11-09T08:55:33.640Z,2.83
2022-11-09T08:58:04.568Z,2.55
2022-11-09T09:00:32.662Z,2.55
2022-11-09T09:03:04.616Z,2.38
2022-11-09T09:05:32.857Z,2.20
2022-11-09T09:08:01.019Z,2.45
2022-11-09T09:10:29.150Z,2.20
2022-11-09T09:12:57.276Z,2.03
2022-11-09T09:15:26.720Z,2.20
2022-11-09T09:17:54.766Z,2.20
2022-11-09T09:20:22.886Z,2.17
2022-11-09T09:22:51.147Z,2.40
2022-11-09T09:25:19.404Z,2.30
2022-11-09T09:27:48.667Z,2.10
2022-11-09T09:30:16.890Z,2.08
2022-11-09T09:32:46.363Z,2.05
2022-11-09T09:35:14.685Z,2.00
2022-11-09T09:37:43.886Z,1.48
2022-11-09T09:40:25.140Z,1.92
2022-11-09T09:42:55.716Z,1.50
2022-11-09T09:45:27.262Z,1.70
2022-11-09T09:48:01.723Z,1.60
2022-11-09T09:50:37.681Z,1.20
2022-11-09T09:53:26.553Z,1.25
2022-11-09T09:55:58.363Z,1.60
2022-11-09T09:58:28.339Z,1.85
2022-11-09T10:01:01.209Z,1.38
2022-11-09T10:03:30.913Z,1.33
2022-11-09T10:06:06.091Z,1.25
2022-11-09T10:08:44.958Z,1.55
2022-11-09T10:11:31.709Z,1.30
2022-11-09T10:14:26.982Z,1.60
2022-11-09T10:17:06.423Z,1.45
2022-11-09T10:19:50.493Z,1.70
2022-11-09T10:22:24.917Z,1.65
2022-11-09T10:25:20.786Z,1.45
2022-11-09T10:27:52.902Z,1.58
2022-11-09T10:30:23.111Z,1.50
2022-11-09T10:32:56.926Z,1.35
2022-11-09T10:35:31.841Z,1.40
2022-11-09T10:38:00.075Z,1.40
2022-11-09T10:40:31.491Z,1.55
2022-11-09T10:43:18.121Z,1.40
2022-11-09T10:46:07.464Z,1.60
2022-11-09T10:48:55.712Z,1.70
2022-11-09T10:51:46.807Z,1.83
2022-11-09T10:54:38.028Z,1.50
2022-11-09T10:57:26.301Z,1.55
2022-11-09T11:00:17.273Z,1.55
2022-11-09T11:03:16.993Z,1.48
2022-11-09T11:06:06.163Z,1.50
2022-11-09T11:09:15.769Z,2.05
2022-11-09T11:12:15.810Z,1.70
2022-11-09T11:15:03.908Z,1.73
2022-11-09T11:17:50.661Z,1.50
2022-11-09T11:20:38.817Z,1.70
2022-11-09T11:23:26.868Z,1.60
2022-11-09T11:26:39.015Z,1.50
2022-11-09T11:29:35.231Z,2.00
2022-11-09T11:32:22.096Z,1.60
2022-11-09T11:35:15.295Z,1.58
2022-11-09T11:38:14.461Z,1.63
2022-11-09T11:41:18.544Z,1.42
2022-11-09T11:44:18.736Z,1.45
2022-11-09T11:47:11.048Z,1.25
2022-11-09T11:50:20.354Z,1.48
2022-11-09T11:53:15.226Z,1.50
2022-11-09T11:56:24.208Z,1.43
2022-11-09T11:59:55.088Z,1.63
2022-11-09T12:03:16.580Z,2.28
2022-11-09T12:06:17.504Z,1.75
2022-11-09T12:09:15.654Z,2.20
2022-11-09T12:12:25.022Z,1.73
2022-11-09T12:15:35.996Z,1.67
2022-11-09T12:18:41.946Z,1.73
2022-11-09T12:21:38.424Z,1.60
2022-11-09T12:24:30.448Z,1.98
2022-11-09T12:27:41.383Z,2.55
2022-11-09T12:30:38.164Z,1.60
2022-11-09T12:33:41.974Z,1.55
2022-11-09T12:36:39.640Z,2.20
2022-11-09T12:39:30.493Z,1.80
2022-11-09T12:42:21.722Z,1.42
2022-11-09T12:45:19.840Z,1.73
2022-11-09T12:48:18.488Z,1.70
2022-11-09T12:51:09.294Z,1.60
2022-11-09T12:53:57.857Z,1.75
2022-11-09T12:56:55.719Z,1.95
2022-11-09T12:59:50.034Z,1.80
2022-11-09T13:02:40.744Z,1.85
2022-11-09T13:05:32.977Z,1.40
2022-11-09T13:08:29.288Z,1.77
2022-11-09T13:11:22.468Z,1.63
2022-11-09T13:14:39.384Z,1.63
2022-11-09T13:17:55.513Z,2.10
2022-11-09T13:24:03.213Z,1.85
2022-11-09T13:26:58.448Z,1.73
2022-11-09T13:29:56.376Z,2.15
2022-11-09T13:33:23.828Z,3.58
2022-11-09T13:36:22.259Z,6.13
2022-11-09T13:39:30.771Z,1.83
2022-11-09T13:42:28.766Z,2.28
2022-11-09T13:45:27.987Z,2.00
2022-11-09T13:48:37.790Z,2.80
2022-11-09T13:51:38.961Z,2.30
2022-11-09T13:54:31.959Z,1.92
2022-11-09T13:57:18.721Z,2.35
2022-11-09T14:00:07.388Z,2.78
2022-11-09T14:03:06.661Z,3.78
2022-11-09T14:05:56.404Z,5.20
2022-11-09T14:08:44.723Z,4.30
2022-11-09T14:11:51.364Z,2.83
2022-11-09T14:15:15.062Z,3.10
2022-11-09T14:18:16.915Z,2.88
2022-11-09T14:21:15.525Z,2.88
2022-11-09T14:24:04.473Z,3.20
2022-11-09T14:27:12.664Z,2.50
2022-11-09T14:30:02.712Z,4.03
2022-11-09T14:32:51.101Z,4.20
2022-11-09T14:35:40.083Z,5.85
2022-11-09T14:38:30.376Z,6.50
2022-11-09T14:41:22.444Z,5.00
2022-11-09T14:44:17.560Z,3.70
2022-11-09T14:47:06.048Z,3.85
2022-11-09T14:49:52.937Z,5.82
2022-11-09T14:52:41.464Z,5.40
2022-11-09T14:55:29.303Z,8.73
2022-11-09T14:58:16.011Z,7.13
2022-11-09T15:01:20.996Z,6.93
2022-11-09T15:04:11.898Z,8.23
2022-11-09T15:07:02.463Z,10.05
2022-11-09T15:09:52.203Z,10.18
2022-11-09T15:12:42.617Z,11.63
2022-11-09T15:15:35.622Z,12.23
2022-11-09T15:18:33.585Z,12.32
2022-11-09T15:21:33.333Z,6.75
2022-11-09T15:24:21.290Z,4.70
2022-11-09T15:27:32.831Z,4.78
2022-11-09T15:30:35.842Z,3.55
2022-11-09T15:33:28.952Z,3.55
2022-11-09T15:36:26.227Z,3.40
2022-11-09T15:39:17.424Z,3.05
2022-11-09T15:42:04.144Z,3.88
2022-11-09T15:44:55.434Z,2.97
2022-11-09T15:47:42.232Z,3.17
2022-11-09T15:50:30.093Z,3.03
2022-11-09T15:53:17.037Z,3.75
2022-11-09T15:56:03.749Z,4.22
2022-11-09T15:58:52.628Z,4.25
2022-11-09T16:01:40.140Z,4.35
2022-11-09T16:04:26.934Z,3.88
2022-11-09T16:07:17.085Z,4.25
2022-11-09T16:10:04.347Z,3.40
2022-11-09T16:12:53.269Z,3.50
2022-11-09T16:15:40.821Z,4.10
2022-11-09T16:18:27.994Z,3.50
2022-11-09T16:21:16.420Z,4.55
2022-11-09T16:24:04.761Z,6.20
2022-11-09T16:26:51.846Z,7.18
2022-11-09T16:29:38.464Z,6.25
2022-11-09T16:32:25.087Z,4.22
2022-11-09T16:35:28.627Z,4.80
2022-11-09T16:38:15.701Z,4.07
2022-11-09T16:41:05.125Z,3.65
2022-11-09T16:43:53.914Z,6.90
2022-11-09T16:46:43.537Z,4.47
2022-11-09T16:49:30.336Z,3.63
2022-11-09T16:52:17.417Z,3.78
2022-11-09T16:55:04.038Z,3.70
2022-11-09T16:57:52.158Z,3.90
2022-11-09T17:01:03.914Z,4.32
2022-11-09T17:03:46.207Z,5.13
2022-11-09T17:06:33.979Z,4.00
2022-11-09T17:09:20.982Z,4.35
2022-11-09T17:12:07.694Z,4.65
2022-11-09T17:14:55.760Z,5.15
2022-11-09T17:17:42.251Z,6.70
2022-11-09T17:20:28.979Z,8.07
2022-11-09T17:23:18.102Z,8.55
2022-11-09T17:26:06.946Z,8.98
2022-11-09T17:28:54.227Z,8.77
2022-11-09T17:31:42.357Z,8.80
2022-11-09T17:34:29.472Z,7.97
2022-11-09T17:37:15.873Z,8.88
2022-11-09T17:40:02.448Z,8.52
2022-11-09T17:42:48.853Z,8.02
2022-11-09T17:45:36.275Z,8.15
2022-11-09T17:48:24.321Z,8.75
2022-11-09T17:51:12.857Z,10.98
2022-11-09T17:54:00.524Z,12.68
2022-11-09T17:56:47.165Z,13.70
2022-11-09T17:59:34.450Z,13.10
2022-11-09T18:02:20.769Z,11.25
2022-11-09T18:05:10.998Z,10.68
2022-11-09T18:07:57.742Z,11.40
2022-11-09T18:10:46.159Z,11.27
2022-11-09T18:13:32.793Z,14.10
2022-11-09T18:16:21.233Z,14.15
2022-11-09T18:19:07.855Z,14.88
2022-11-09T18:21:55.890Z,12.07
2022-11-09T18:24:42.198Z,15.13
2022-11-09T18:27:30.460Z,15.40
2022-11-09T18:30:18.150Z,14.88
2022-11-09T18:33:04.562Z,14.45
2022-11-09T18:35:57.072Z,14.23
2022-11-09T18:38:45.711Z,13.10
2022-11-09T18:41:33.087Z,14.15
2022-11-09T18:44:19.709Z,16.13
2022-11-09T18:47:08.624Z,17.08
2022-11-09T18:49:55.428Z,17.05
2022-11-09T18:52:42.128Z,14.65
2022-11-09T18:55:30.156Z,18.13
2022-11-09T18:58:17.288Z,15.57
2022-11-09T19:01:05.947Z,18.08
2022-11-09T19:03:58.740Z,20.88
2022-11-09T19:06:47.011Z,17.63
2022-11-09T19:09:37.123Z,16.90
2022-11-09T19:12:25.328Z,15.07
2022-11-09T19:15:11.988Z,13.48
2022-11-09T19:17:58.620Z,13.75
2022-11-09T19:20:44.942Z,13.43
2022-11-09T19:23:34.585Z,11.73
2022-11-09T19:26:22.182Z,11.00
2022-11-09T19:29:11.514Z,11.07
2022-11-09T19:31:57.956Z,12.13
2022-11-09T19:34:46.219Z,11.27
2022-11-09T19:37:33.154Z,11.43
2022-11-09T19:40:20.550Z,11.00
2022-11-09T19:43:06.791Z,11.13
2022-11-09T19:45:55.171Z,10.05
2022-11-09T19:48:45.288Z,10.27
2022-11-09T19:51:32.395Z,10.70
2022-11-09T19:54:18.957Z,10.05
2022-11-09T19:57:05.960Z,9.27
2022-11-09T19:59:52.871Z,9.30
2022-11-09T20:02:40.997Z,9.30
2022-11-09T20:05:27.488Z,10.55
2022-11-09T20:08:14.838Z,10.27
2022-11-09T20:11:06.258Z,10.65
2022-11-09T20:13:52.252Z,11.85
2022-11-09T20:16:40.810Z,11.55
2022-11-09T20:19:29.255Z,11.40
2022-11-09T20:22:16.892Z,12.30
2022-11-09T20:25:05.674Z,13.07
2022-11-09T20:27:53.773Z,13.52
2022-11-09T20:30:40.502Z,14.82
2022-11-09T20:33:27.178Z,13.70
2022-11-09T20:36:16.087Z,13.55
2022-11-09T20:39:03.197Z,12.32
2022-11-09T20:41:50.845Z,14.00
2022-11-09T20:44:39.782Z,14.15
2022-11-09T20:47:57.204Z,13.98
2022-11-09T20:50:34.998Z,14.25
2022-11-09T20:53:23.048Z,14.27
2022-11-09T20:56:09.779Z,13.85
2022-11-09T20:58:56.587Z,12.93
2022-11-09T21:01:43.105Z,14.50
2022-11-09T21:04:30.224Z,12.77
2022-11-09T21:07:20.392Z,12.55
2022-11-09T21:10:09.345Z,11.93
2022-11-09T21:12:56.727Z,12.93
2022-11-09T21:15:43.842Z,12.48
2022-11-09T21:18:30.674Z,13.43
2022-11-09T21:21:24.573Z,12.88
2022-11-09T21:24:29.722Z,12.43
2022-11-09T21:27:38.236Z,12.93
2022-11-09T21:30:26.213Z,12.05
2022-11-09T21:33:13.425Z,12.90
2022-11-09T21:36:00.204Z,12.57
2022-11-09T21:38:47.018Z,13.20
2022-11-09T21:41:40.886Z,12.52
2022-11-09T21:44:31.773Z,13.20
2022-11-09T21:47:18.813Z,13.48
2022-11-09T21:50:12.281Z,13.32
2022-11-09T21:52:59.476Z,12.82
2022-11-09T21:55:46.243Z,13.45
2022-11-09T21:58:33.590Z,13.07
2022-11-09T22:01:21.837Z,13.18
2022-11-09T22:04:08.793Z,13.23
2022-11-09T22:06:55.484Z,14.38
2022-11-09T22:10:08.250Z,14.35
2022-11-09T22:13:08.138Z,15.10
2022-11-09T22:16:09.287Z,14.38
2022-11-09T22:19:15.334Z,15.93
2022-11-09T22:22:01.903Z,16.20
2022-11-09T22:24:48.568Z,17.58
2022-11-09T22:27:35.571Z,16.73
2022-11-09T22:30:22.268Z,17.55
2022-11-09T22:33:08.881Z,18.38
2022-11-09T22:35:57.743Z,17.83
2022-11-09T22:38:45.366Z,18.13
2022-11-09T22:41:32.415Z,17.58
2022-11-09T22:44:19.102Z,17.98
2022-11-09T22:47:05.684Z,18.38
2022-11-09T22:49:52.012Z,18.27
2022-11-09T22:52:40.006Z,18.38
2022-11-09T22:55:27.182Z,17.05
2022-11-09T22:58:13.897Z,18.05
2022-11-09T23:01:12.008Z,16.40
2022-11-09T23:03:58.872Z,17.52
2022-11-09T23:06:45.793Z,16.52
2022-11-09T23:09:33.867Z,16.70
2022-11-09T23:12:20.477Z,17.52
2022-11-09T23:15:13.104Z,17.80
2022-11-09T23:18:17.621Z,17.90
2022-11-09T23:21:04.209Z,18.05
2022-11-09T23:23:51.615Z,18.90
2022-11-09T23:26:39.768Z,18.83
2022-11-09T23:29:26.340Z,18.27
2022-11-09T23:32:12.783Z,18.33
2022-11-09T23:34:59.390Z,18.67
2022-11-09T23:37:46.324Z,16.70
2022-11-09T23:40:35.174Z,16.73
2022-11-09T23:43:23.269Z,18.17
2022-11-09T23:46:12.533Z,17.42
2022-11-09T23:48:58.916Z,17.33
2022-11-09T23:51:45.733Z,17.58
2022-11-09T23:54:32.317Z,16.73
2022-11-09T23:57:18.873Z,15.73
